Pagina principale
METAR-TAF:

METAR-TAF

Aeroporti :

Aeroporto di Poitiers Biard

Poitiers, Francia

latitudine: 46-35N, longitudine: 000-19E, altezza: 129 m

Osservazione

Il bollettino è stato emesso 20 minuti fa, alle 17:30 UTC
Vento 11 kt da est/nord-est, variando fra nord-est e est/sud-est
Temperature 24°C
Umidità 34%
Pressione 1013 hPa
Visibilità 10 km o più
nessuna nube inferiore a 1500 m e nessun cumulonembo

METAR: LFBI 311730Z AUTO 07011KT 040V110 CAVOK 24/07 Q1013 NOSIG

Ora: 19:50 (17:50 UTC)

Previsione

Il bollettino è stato emesso 50 minuti fa, alle 17:00 UTC
Previsione valida dal 31 alle 18 UTC al 01 alle 18 UTC
Vento 10 kt da est/nord-est
Visibilità 10 km o più
nessuna nube inferiore a 1500 m e nessun cumulonembo
Evoluzione graduale
dal 31 alle 20 UTC al 31 alle 22 UTC
Vento 5 kt da nord-est
Evoluzione graduale
dal 01 alle 10 UTC al 01 alle 13 UTC
Vento 10 kt da est/nord-est

TAF: LFBI 311700Z 3118/0118 07010KT CAVOK BECMG 3120/3122 05005KT BECMG 0110/0113 06010KT

Osservazioni e previsioni meteorologiche di più di 4000 aeroporti (messaggi METAR e TAF).

Le stazioni disponibili sono rappresentate dai dischi gialli e rossi sulla carta.

Puntare il mouse per vedere il nome della stazione.

Clicca sopra per visualizzare le osservazioni e previsioni meteorologiche.

Per cambiare la mappa : fare clic sui pulsanti verdi con una croce nera per ingrandire, il pulsante verde con un trattino per diminuire, o sulla freccia verde per le mappe adiacenti.


METAR-TAF: